Santa Monica, California
Current Conditions -  °F | °C
As of 4:51 AM on Thursday 30 Oct 2014 (Local Time) from KSMO Reporting Station
Clear Clear  
Wind Chill: 61°   Ceiling: Unl
Heat Index: 61°   Visibility: 10mi
Dew Point: 53°   Wind: 3mph
Humidity: 75%   Direction: 30°NNE
Pressure: 29.97"   Gusts: NA
Location:  34.01°N, 118.49°W
Report Text: KSMO 301151Z 03003KT 10SM CLR 16/12 A2997 RMK AO2 SLP148 T01610117 10189 20161 57006
Loading
Personal Weather Stations






























Interactive Weather Map New forecast layout! Learn more

10-Day Weather Forecast

Advertisements
Track Severe Weather on mobile